createdAt,value
2023-10-19T00:00:23.950Z,98740.80
2023-10-19T00:01:59.378Z,98743.80
2023-10-19T00:03:31.300Z,98742.40
2023-10-19T00:05:04.306Z,98739.00
2023-10-19T00:06:36.049Z,98737.00
2023-10-19T00:08:16.374Z,98732.00
2023-10-19T00:09:52.886Z,98731.40
2023-10-19T00:11:27.136Z,98727.00
2023-10-19T00:13:04.985Z,98724.80
2023-10-19T00:14:36.729Z,98725.20
2023-10-19T00:16:19.193Z,98728.20
2023-10-19T00:17:54.970Z,98723.20
2023-10-19T00:19:31.768Z,98724.60
2023-10-19T00:21:32.799Z,98722.60
2023-10-19T00:23:06.859Z,98723.20
2023-10-19T00:24:40.063Z,98722.00
2023-10-19T00:26:16.579Z,98726.00
2023-10-19T00:27:52.111Z,98723.00
2023-10-19T00:29:34.234Z,98720.60
2023-10-19T00:31:09.794Z,98714.00
2023-10-19T00:32:41.918Z,98717.40
2023-10-19T00:34:17.228Z,98713.60
2023-10-19T00:36:01.157Z,98709.00
2023-10-19T00:37:33.820Z,98707.40
2023-10-19T00:39:15.301Z,98710.20
2023-10-19T00:40:54.839Z,98710.00
2023-10-19T00:42:31.133Z,98708.80
2023-10-19T00:44:12.099Z,98707.40
2023-10-19T00:45:48.021Z,98710.40
2023-10-19T00:47:25.807Z,98708.80
2023-10-19T00:49:01.096Z,98706.80
2023-10-19T00:50:32.954Z,98705.80
2023-10-19T00:52:13.521Z,98700.40
2023-10-19T00:53:45.413Z,98699.60
2023-10-19T00:55:22.658Z,98696.80
2023-10-19T00:56:59.839Z,98701.20
2023-10-19T00:58:37.000Z,98700.20
2023-10-19T01:00:13.395Z,98695.40
2023-10-19T01:02:28.769Z,98693.60
2023-10-19T01:05:38.820Z,98693.20
2023-10-19T01:07:23.439Z,98692.20
2023-10-19T01:08:56.341Z,98688.60
2023-10-19T01:10:29.525Z,98685.80
2023-10-19T01:12:22.974Z,98686.60
2023-10-19T01:13:55.095Z,98689.00
2023-10-19T01:15:29.625Z,98683.20
2023-10-19T01:17:03.046Z,98681.60
2023-10-19T01:18:34.868Z,98679.40
2023-10-19T01:20:19.367Z,98682.80
2023-10-19T01:22:00.283Z,98682.40
2023-10-19T01:23:32.914Z,98682.60
2023-10-19T01:25:11.726Z,98681.60
2023-10-19T01:26:43.738Z,98676.40
2023-10-19T01:28:18.366Z,98674.40
2023-10-19T01:30:01.223Z,98676.60
2023-10-19T01:31:40.143Z,98675.60
2023-10-19T01:33:17.046Z,98677.80
2023-10-19T01:34:49.033Z,98674.80
2023-10-19T01:36:20.799Z,98678.20
2023-10-19T01:37:52.586Z,98669.80
2023-10-19T01:39:24.341Z,98671.60
2023-10-19T01:40:57.673Z,98677.60
2023-10-19T01:42:31.894Z,98668.60
2023-10-19T01:44:08.153Z,98675.00
2023-10-19T01:45:39.891Z,98671.80
2023-10-19T01:47:12.081Z,98668.80
2023-10-19T01:48:47.773Z,98667.60
2023-10-19T01:50:21.105Z,98666.60
2023-10-19T01:51:55.224Z,98667.20
2023-10-19T01:53:27.296Z,98667.00
2023-10-19T01:55:08.901Z,98665.60
2023-10-19T01:56:43.579Z,98659.40
2023-10-19T01:58:15.875Z,98667.00
2023-10-19T01:59:47.960Z,98666.00
2023-10-19T02:01:29.817Z,98665.20
2023-10-19T02:03:06.233Z,98659.40
2023-10-19T02:04:38.775Z,98658.40
2023-10-19T02:06:18.811Z,98660.60
2023-10-19T02:07:50.501Z,98656.40
2023-10-19T02:09:27.703Z,98653.40
2023-10-19T02:11:03.467Z,98652.40
2023-10-19T02:12:35.663Z,98653.00
2023-10-19T02:14:15.104Z,98648.00
2023-10-19T02:15:47.235Z,98650.00
2023-10-19T02:17:19.791Z,98643.80
2023-10-19T02:18:52.993Z,98644.20
2023-10-19T02:22:12.864Z,98645.40
2023-10-19T02:23:44.584Z,98637.80
2023-10-19T02:25:16.951Z,98636.20
2023-10-19T02:26:55.421Z,98638.80
2023-10-19T02:28:32.553Z,98637.60
2023-10-19T02:30:05.630Z,98640.20
2023-10-19T02:31:42.252Z,98644.00
2023-10-19T02:33:14.058Z,98640.40
2023-10-19T02:34:46.950Z,98639.80
2023-10-19T02:36:22.006Z,98632.80
2023-10-19T02:37:53.791Z,98629.00
2023-10-19T02:39:29.414Z,98633.20
2023-10-19T02:41:01.535Z,98630.40
2023-10-19T02:42:34.396Z,98631.80
2023-10-19T02:44:11.350Z,98633.00
2023-10-19T02:45:49.047Z,98631.80
2023-10-19T02:47:20.888Z,98634.20
2023-10-19T02:48:52.704Z,98628.80
2023-10-19T02:50:27.372Z,98630.40
2023-10-19T02:52:05.066Z,98626.60
2023-10-19T02:53:39.200Z,98626.60
2023-10-19T02:55:11.226Z,98628.00
2023-10-19T02:56:44.216Z,98626.80
2023-10-19T02:58:16.058Z,98621.40
2023-10-19T02:59:48.416Z,98623.60
2023-10-19T03:01:25.993Z,98618.00
2023-10-19T03:02:57.975Z,98617.00
2023-10-19T03:04:30.646Z,98621.00
2023-10-19T03:06:05.061Z,98616.80
2023-10-19T03:07:36.796Z,98625.00
2023-10-19T03:09:28.329Z,98624.60
2023-10-19T03:11:06.117Z,98621.00
2023-10-19T03:12:37.800Z,98625.60
2023-10-19T03:14:10.851Z,98623.00
2023-10-19T03:15:44.242Z,98622.80
2023-10-19T03:17:17.229Z,98618.00
2023-10-19T03:18:49.333Z,98624.40
2023-10-19T03:20:25.008Z,98619.40
2023-10-19T03:21:57.278Z,98614.00
2023-10-19T03:23:29.695Z,98617.40
2023-10-19T03:25:21.466Z,98616.40
2023-10-19T03:26:55.768Z,98611.60
2023-10-19T03:28:27.589Z,98616.60
2023-10-19T03:30:01.121Z,98610.00
2023-10-19T03:31:44.498Z,98612.60
2023-10-19T03:33:19.342Z,98608.20
2023-10-19T03:34:52.279Z,98608.00
2023-10-19T03:36:25.904Z,98614.00
2023-10-19T03:38:01.860Z,98609.20
2023-10-19T03:39:40.216Z,98608.60
2023-10-19T03:41:11.974Z,98611.20
2023-10-19T03:42:45.209Z,98605.40
2023-10-19T03:44:25.631Z,98608.60
2023-10-19T03:46:00.205Z,98606.80
2023-10-19T03:47:36.211Z,98603.40
2023-10-19T03:49:13.134Z,98602.80
2023-10-19T03:50:45.442Z,98600.20
2023-10-19T03:52:18.005Z,98596.60
2023-10-19T03:53:55.724Z,98597.00
2023-10-19T03:55:30.114Z,98593.40
2023-10-19T03:57:07.292Z,98597.20
2023-10-19T03:58:41.105Z,98596.60
2023-10-19T04:00:20.733Z,98600.20
2023-10-19T04:01:52.554Z,98594.20
2023-10-19T04:03:26.191Z,98593.40
2023-10-19T04:04:58.862Z,98586.00
2023-10-19T04:06:31.079Z,98583.60
2023-10-19T04:08:07.899Z,98586.80
2023-10-19T04:09:57.898Z,98583.40
2023-10-19T04:11:34.067Z,98582.20
2023-10-19T04:14:42.750Z,98587.60
2023-10-19T04:16:15.361Z,98585.40
2023-10-19T04:17:50.104Z,98586.80
2023-10-19T04:19:22.034Z,98586.00
2023-10-19T04:20:53.838Z,98582.60
2023-10-19T04:22:25.883Z,98585.80
2023-10-19T04:23:58.222Z,98587.80
2023-10-19T04:25:30.762Z,98583.40
2023-10-19T04:27:02.738Z,98582.00
2023-10-19T04:28:46.007Z,98582.60
2023-10-19T04:30:24.386Z,98583.80
2023-10-19T04:31:56.286Z,98576.00
2023-10-19T04:33:29.594Z,98576.00
2023-10-19T04:35:01.403Z,98573.00
2023-10-19T04:36:34.952Z,98570.40
2023-10-19T04:38:09.668Z,98572.00
2023-10-19T04:39:41.439Z,98568.40
2023-10-19T04:41:13.259Z,98567.60
2023-10-19T04:42:47.209Z,98565.60
2023-10-19T04:44:19.181Z,98565.40
2023-10-19T04:45:50.859Z,98564.20
2023-10-19T04:47:25.032Z,98564.40
2023-10-19T04:48:58.341Z,98563.40
2023-10-19T04:50:30.092Z,98561.40
2023-10-19T04:52:01.904Z,98563.80
2023-10-19T04:53:34.251Z,98565.40
2023-10-19T04:55:07.306Z,98568.00
2023-10-19T04:56:39.095Z,98568.80
2023-10-19T04:58:11.479Z,98567.00
2023-10-19T04:59:46.490Z,98565.20
2023-10-19T05:01:18.340Z,98566.20
2023-10-19T05:02:50.567Z,98566.20
2023-10-19T05:04:22.668Z,98564.60
2023-10-19T05:05:55.817Z,98564.20
2023-10-19T05:07:27.899Z,98569.60
2023-10-19T05:08:59.871Z,98566.20
2023-10-19T05:10:31.651Z,98565.20
2023-10-19T05:12:03.701Z,98567.00
2023-10-19T05:13:37.117Z,98562.80
2023-10-19T05:15:09.416Z,98566.60
2023-10-19T05:16:41.878Z,98559.60
2023-10-19T05:18:13.811Z,98567.60
2023-10-19T05:19:45.565Z,98571.60
2023-10-19T05:21:17.245Z,98568.60
2023-10-19T05:22:49.078Z,98570.40
2023-10-19T05:24:20.831Z,98574.60
2023-10-19T05:26:00.569Z,98576.00
2023-10-19T05:27:33.036Z,98575.60
2023-10-19T05:29:04.942Z,98579.80
2023-10-19T05:30:37.369Z,98576.60
2023-10-19T05:32:10.852Z,98579.00
2023-10-19T05:33:42.979Z,98575.40
2023-10-19T05:35:23.755Z,98581.60
2023-10-19T05:36:59.249Z,98577.80
2023-10-19T05:38:33.093Z,98580.20
2023-10-19T05:40:06.320Z,98580.80
2023-10-19T05:41:39.883Z,98582.20
2023-10-19T05:43:12.773Z,98582.80
2023-10-19T05:44:44.903Z,98580.80
2023-10-19T05:46:22.467Z,98573.40
2023-10-19T05:47:54.551Z,98577.80
2023-10-19T05:49:26.367Z,98580.20
2023-10-19T05:50:58.182Z,98580.80
2023-10-19T05:52:30.605Z,98583.60
2023-10-19T05:54:05.769Z,98587.80
2023-10-19T05:55:37.557Z,98582.40
2023-10-19T05:57:10.520Z,98586.40
2023-10-19T05:58:42.346Z,98584.80
2023-10-19T06:00:15.157Z,98589.80
2023-10-19T06:01:48.186Z,98584.80
2023-10-19T06:03:20.420Z,98588.00
2023-10-19T06:04:52.221Z,98588.20
2023-10-19T06:06:24.748Z,98589.60
2023-10-19T06:07:57.181Z,98589.80
2023-10-19T06:09:30.785Z,98589.00
2023-10-19T06:11:02.821Z,98589.20
2023-10-19T06:12:35.683Z,98590.40
2023-10-19T06:14:08.013Z,98590.80
2023-10-19T06:15:40.045Z,98593.60
2023-10-19T06:17:11.902Z,98598.20
2023-10-19T06:18:45.225Z,98596.00
2023-10-19T06:20:27.760Z,98603.20
2023-10-19T06:22:01.126Z,98601.60
2023-10-19T06:23:32.878Z,98601.00
2023-10-19T06:25:07.939Z,98608.20
2023-10-19T06:26:39.657Z,98607.60
2023-10-19T06:28:12.545Z,98608.60
2023-10-19T06:29:45.194Z,98611.60
2023-10-19T06:31:17.245Z,98611.00
2023-10-19T06:33:01.342Z,98615.40
2023-10-19T06:34:33.651Z,98617.80
2023-10-19T06:36:06.121Z,98614.40
2023-10-19T06:37:37.935Z,98620.20
2023-10-19T06:39:09.796Z,98613.20
2023-10-19T06:40:41.923Z,98614.80
2023-10-19T06:42:16.575Z,98616.80
2023-10-19T06:43:48.331Z,98620.00
2023-10-19T06:45:20.652Z,98623.00
2023-10-19T06:46:52.386Z,98619.60
2023-10-19T06:48:24.230Z,98620.80
2023-10-19T06:49:57.060Z,98625.20
2023-10-19T06:51:28.913Z,98620.00
2023-10-19T06:53:00.751Z,98618.60
2023-10-19T06:54:33.829Z,98621.40
2023-10-19T06:56:05.840Z,98627.20
2023-10-19T06:57:37.717Z,98629.80
2023-10-19T06:59:09.528Z,98629.80
2023-10-19T07:00:47.886Z,98632.40
2023-10-19T07:02:21.886Z,98632.80
2023-10-19T07:03:54.837Z,98628.40
2023-10-19T07:05:26.840Z,98630.80
2023-10-19T07:07:02.141Z,98631.60
2023-10-19T07:08:33.905Z,98635.60
2023-10-19T07:10:07.661Z,98633.60
2023-10-19T07:11:39.439Z,98634.80
2023-10-19T07:13:11.185Z,98635.00
2023-10-19T07:14:42.916Z,98640.20
2023-10-19T07:16:15.562Z,98643.80
2023-10-19T07:17:48.632Z,98638.40
2023-10-19T07:19:20.624Z,98641.40
2023-10-19T07:20:54.479Z,98639.40
2023-10-19T07:22:26.467Z,98635.80
2023-10-19T07:24:02.477Z,98629.00
2023-10-19T07:25:44.419Z,98634.00
2023-10-19T07:27:34.498Z,98635.60
2023-10-19T07:29:11.521Z,98634.40
2023-10-19T07:30:45.030Z,98637.80
2023-10-19T07:32:19.195Z,98638.20
2023-10-19T07:33:52.010Z,98636.40
2023-10-19T07:35:24.047Z,98639.60
2023-10-19T07:36:56.632Z,98639.40
2023-10-19T07:38:30.103Z,98640.40
2023-10-19T07:40:02.224Z,98646.80
2023-10-19T07:41:37.447Z,98641.80
2023-10-19T07:43:09.809Z,98645.00
2023-10-19T07:44:42.543Z,98646.40
2023-10-19T07:46:14.490Z,98645.20
2023-10-19T07:47:52.210Z,98646.40
2023-10-19T07:49:26.797Z,98649.20
2023-10-19T07:50:58.833Z,98643.60
2023-10-19T07:52:30.703Z,98648.20
2023-10-19T07:54:02.491Z,98648.80
2023-10-19T07:55:34.586Z,98652.00
2023-10-19T07:57:09.468Z,98648.40
2023-10-19T07:58:43.395Z,98654.20
2023-10-19T08:00:18.591Z,98653.40
2023-10-19T08:01:50.412Z,98657.00
2023-10-19T08:03:23.038Z,98653.00
2023-10-19T08:04:55.250Z,98653.40
2023-10-19T08:06:27.661Z,98650.20
2023-10-19T08:08:01.342Z,98644.00
2023-10-19T08:09:36.401Z,98648.20
2023-10-19T08:11:09.561Z,98647.00
2023-10-19T08:12:43.308Z,98647.60
2023-10-19T08:14:15.343Z,98643.40
2023-10-19T08:15:47.174Z,98646.00
2023-10-19T08:17:18.898Z,98648.40
2023-10-19T08:18:51.039Z,98649.20
2023-10-19T08:20:33.336Z,98646.60
2023-10-19T08:22:06.333Z,98643.00
2023-10-19T08:23:38.167Z,98644.60
2023-10-19T08:25:15.532Z,98645.80
2023-10-19T08:26:47.381Z,98647.00
2023-10-19T08:28:19.442Z,98647.40
2023-10-19T08:29:51.504Z,98645.80
2023-10-19T08:31:23.275Z,98649.20
2023-10-19T08:32:55.343Z,98650.00
2023-10-19T08:34:27.227Z,98650.60
2023-10-19T08:36:01.164Z,98650.80
2023-10-19T08:37:33.473Z,98649.40
2023-10-19T08:39:10.168Z,98652.60
2023-10-19T08:40:42.018Z,98654.80
2023-10-19T08:42:14.495Z,98651.20
2023-10-19T08:43:46.545Z,98649.40
2023-10-19T08:45:18.612Z,98652.80
2023-10-19T08:46:50.460Z,98649.20
2023-10-19T08:48:22.284Z,98649.60
2023-10-19T08:49:55.305Z,98646.20
2023-10-19T08:51:27.217Z,98648.00
2023-10-19T08:53:04.094Z,98644.60
2023-10-19T08:54:36.487Z,98643.80
2023-10-19T08:56:09.639Z,98638.80
2023-10-19T08:57:42.328Z,98640.80
2023-10-19T08:59:16.325Z,98638.40
2023-10-19T09:00:56.710Z,98640.40
2023-10-19T09:02:28.597Z,98635.00
2023-10-19T09:04:00.404Z,98633.00
2023-10-19T09:05:32.377Z,98631.60
2023-10-19T09:07:11.242Z,98628.00
2023-10-19T09:08:43.012Z,98631.80
2023-10-19T09:10:18.144Z,98630.20
2023-10-19T09:11:50.042Z,98627.40
2023-10-19T09:13:23.809Z,98631.00
2023-10-19T09:14:58.180Z,98630.80
2023-10-19T09:16:31.932Z,98631.20
2023-10-19T09:18:17.742Z,98627.80
2023-10-19T09:19:52.067Z,98626.40
2023-10-19T09:21:26.816Z,98623.00
2023-10-19T09:22:59.297Z,98621.20
2023-10-19T09:24:32.819Z,98625.60
2023-10-19T09:26:09.522Z,98624.80
2023-10-19T09:27:41.927Z,98625.80
2023-10-19T09:29:19.842Z,98627.60
2023-10-19T09:30:52.912Z,98630.40
2023-10-19T09:32:24.866Z,98626.00
2023-10-19T09:33:58.422Z,98625.00
2023-10-19T09:35:32.535Z,98616.00
2023-10-19T09:37:05.730Z,98622.00
2023-10-19T09:38:37.521Z,98614.00
2023-10-19T09:40:14.201Z,98620.60
2023-10-19T09:41:48.661Z,98619.00
2023-10-19T09:43:42.411Z,98622.20
2023-10-19T09:45:20.520Z,98626.80
2023-10-19T09:46:57.229Z,98626.60
2023-10-19T09:48:29.894Z,98621.60
2023-10-19T09:50:02.662Z,98619.40
2023-10-19T09:51:36.074Z,98620.60
2023-10-19T09:53:08.480Z,98619.20
2023-10-19T09:54:54.044Z,98620.60
2023-10-19T09:56:35.092Z,98616.80
2023-10-19T09:58:25.701Z,98618.20
2023-10-19T10:00:29.883Z,98618.20
2023-10-19T10:02:12.206Z,98619.60
2023-10-19T10:03:50.059Z,98620.00
2023-10-19T10:05:43.608Z,98617.20
2023-10-19T10:07:32.261Z,98619.40
2023-10-19T10:09:13.008Z,98611.00
2023-10-19T10:10:49.907Z,98607.00
2023-10-19T10:12:24.905Z,98605.20
2023-10-19T10:13:59.507Z,98606.00
2023-10-19T10:15:42.868Z,98611.60
2023-10-19T10:17:20.027Z,98616.60
2023-10-19T10:19:02.655Z,98615.60
2023-10-19T10:20:35.377Z,98613.80
2023-10-19T10:22:21.997Z,98613.20
2023-10-19T10:23:56.012Z,98611.40
2023-10-19T10:25:29.959Z,98613.80
2023-10-19T10:27:04.728Z,98617.00
2023-10-19T10:28:37.189Z,98613.40
2023-10-19T10:30:11.729Z,98606.40
2023-10-19T10:31:47.334Z,98601.20
2023-10-19T10:33:46.169Z,98601.80
2023-10-19T10:35:42.676Z,98601.20
2023-10-19T10:37:15.380Z,98602.00
2023-10-19T10:38:50.585Z,98600.80
2023-10-19T10:40:24.063Z,98599.60
2023-10-19T10:42:01.030Z,98600.80
2023-10-19T10:43:32.892Z,98604.20
2023-10-19T10:45:06.640Z,98603.20
2023-10-19T10:46:41.673Z,98607.20
2023-10-19T10:48:22.347Z,98609.00
2023-10-19T10:49:58.164Z,98610.40
2023-10-19T10:51:30.388Z,98604.40
2023-10-19T10:53:02.397Z,98606.80
2023-10-19T10:54:34.421Z,98605.40
2023-10-19T10:56:06.261Z,98601.60
2023-10-19T10:57:39.924Z,98601.60
2023-10-19T10:59:14.965Z,98599.20
2023-10-19T11:00:49.346Z,98599.20
2023-10-19T11:02:23.137Z,98598.60
2023-10-19T11:04:12.964Z,98598.80
2023-10-19T11:05:47.058Z,98598.60
2023-10-19T11:07:21.066Z,98596.00
2023-10-19T11:08:53.760Z,98597.20
2023-10-19T11:10:30.391Z,98594.20
2023-10-19T11:12:13.249Z,98588.00
2023-10-19T11:13:45.081Z,98584.40
2023-10-19T11:15:22.779Z,98584.60
2023-10-19T11:16:54.941Z,98585.40
2023-10-19T11:18:44.298Z,98585.20
2023-10-19T11:20:28.367Z,98577.80
2023-10-19T11:22:01.025Z,98576.60
2023-10-19T11:23:54.490Z,98576.00
2023-10-19T11:25:29.899Z,98578.60
2023-10-19T11:27:01.880Z,98584.20
2023-10-19T11:28:35.713Z,98593.00
2023-10-19T11:30:13.710Z,98588.40
2023-10-19T11:32:03.211Z,98592.20
2023-10-19T11:33:35.325Z,98592.20
2023-10-19T11:35:08.295Z,98592.80
2023-10-19T11:36:40.754Z,98589.20
2023-10-19T11:38:12.516Z,98579.40
2023-10-19T11:39:44.310Z,98574.80
2023-10-19T11:41:17.340Z,98570.80
2023-10-19T11:42:51.755Z,98566.80
2023-10-19T11:44:23.554Z,98565.20
2023-10-19T11:45:55.343Z,98563.00
2023-10-19T11:47:27.089Z,98558.20
2023-10-19T11:48:58.880Z,98558.00
2023-10-19T11:50:30.601Z,98549.80
2023-10-19T11:52:08.281Z,98551.20
2023-10-19T11:53:41.160Z,98552.00
2023-10-19T11:55:17.081Z,98543.40
2023-10-19T11:56:50.131Z,98545.60
2023-10-19T11:58:21.897Z,98545.40
2023-10-19T11:59:56.063Z,98544.80
2023-10-19T12:01:30.749Z,98546.00
2023-10-19T12:03:02.683Z,98538.00
2023-10-19T12:04:37.347Z,98535.40
2023-10-19T12:06:11.866Z,98532.20
2023-10-19T12:07:46.345Z,98538.80
2023-10-19T12:09:18.438Z,98531.00
2023-10-19T12:10:52.260Z,98530.80
2023-10-19T12:12:24.057Z,98526.60
2023-10-19T12:13:56.051Z,98529.00
2023-10-19T12:15:28.588Z,98526.40
2023-10-19T12:17:02.262Z,98521.40
2023-10-19T12:18:34.179Z,98518.20
2023-10-19T12:20:07.992Z,98512.80
2023-10-19T12:21:42.818Z,98509.40
2023-10-19T12:23:16.049Z,98508.40
2023-10-19T12:24:49.450Z,98510.00
2023-10-19T12:26:21.365Z,98510.20
2023-10-19T12:27:53.986Z,98510.80
2023-10-19T12:29:26.677Z,98506.20
2023-10-19T12:30:58.512Z,98511.80
2023-10-19T12:32:30.455Z,98514.00
2023-10-19T12:34:02.592Z,98513.40
2023-10-19T12:35:55.404Z,98511.40
2023-10-19T12:37:27.769Z,98510.60
2023-10-19T12:39:00.022Z,98514.20
2023-10-19T12:40:36.730Z,98518.00
2023-10-19T12:42:08.850Z,98521.40
2023-10-19T12:43:40.971Z,98523.40
2023-10-19T12:45:12.793Z,98523.40
2023-10-19T12:46:44.620Z,98525.20
2023-10-19T12:48:16.675Z,98526.60
2023-10-19T12:49:49.264Z,98535.40
2023-10-19T12:51:31.118Z,98535.80
2023-10-19T12:53:03.495Z,98535.20
2023-10-19T12:54:36.869Z,98532.80
2023-10-19T12:56:11.384Z,98536.40
2023-10-19T12:57:43.605Z,98545.20
2023-10-19T12:59:18.679Z,98543.40
2023-10-19T13:00:50.472Z,98544.00
2023-10-19T13:02:22.359Z,98540.40
2023-10-19T13:03:54.226Z,98529.60
2023-10-19T13:05:27.144Z,98524.00
2023-10-19T13:06:59.299Z,98521.00
2023-10-19T13:08:31.562Z,98525.60
2023-10-19T13:10:05.872Z,98527.80
2023-10-19T13:11:39.932Z,98525.60
2023-10-19T13:13:15.798Z,98525.80
2023-10-19T13:14:47.600Z,98515.40
2023-10-19T13:16:19.422Z,98511.00
2023-10-19T13:17:53.612Z,98506.80
2023-10-19T13:19:26.342Z,98503.00
2023-10-19T13:20:58.272Z,98501.00
2023-10-19T13:22:30.575Z,98502.40
2023-10-19T13:24:03.183Z,98504.80
2023-10-19T13:26:03.566Z,98507.00
2023-10-19T13:27:35.725Z,98507.40
2023-10-19T13:29:07.539Z,98511.00
2023-10-19T13:30:41.873Z,98511.00
2023-10-19T13:32:13.830Z,98512.40
2023-10-19T13:33:47.314Z,98512.20
2023-10-19T13:35:19.120Z,98510.40
2023-10-19T13:36:52.614Z,98510.00
2023-10-19T13:38:25.080Z,98511.00
2023-10-19T13:39:58.109Z,98505.20
2023-10-19T13:41:30.184Z,98507.80
2023-10-19T13:43:05.603Z,98508.80
2023-10-19T13:44:37.349Z,98518.80
2023-10-19T13:46:09.249Z,98514.80
2023-10-19T13:47:41.046Z,98513.60
2023-10-19T13:49:14.237Z,98517.00
2023-10-19T13:50:50.057Z,98522.00
2023-10-19T13:52:21.884Z,98524.20
2023-10-19T13:53:53.687Z,98523.40
2023-10-19T13:55:25.555Z,98519.80
2023-10-19T13:56:57.647Z,98519.40
2023-10-19T13:58:29.417Z,98516.00
2023-10-19T14:00:02.316Z,98515.80
2023-10-19T14:01:36.928Z,98512.20
2023-10-19T14:03:10.175Z,98510.60
2023-10-19T14:04:42.283Z,98513.00
2023-10-19T14:06:15.749Z,98513.80
2023-10-19T14:07:48.169Z,98512.20
2023-10-19T14:09:19.927Z,98515.60
2023-10-19T14:10:51.791Z,98508.00
2023-10-19T14:12:23.812Z,98506.40
2023-10-19T14:13:56.274Z,98503.80
2023-10-19T14:15:29.079Z,98502.80
2023-10-19T14:17:01.692Z,98499.40
2023-10-19T14:18:33.492Z,98493.60
2023-10-19T14:20:06.643Z,98491.20
2023-10-19T14:21:38.667Z,98491.60
2023-10-19T14:23:12.045Z,98484.60
2023-10-19T14:24:43.815Z,98483.60
2023-10-19T14:26:15.866Z,98483.20
2023-10-19T14:27:49.490Z,98480.60
2023-10-19T14:29:21.335Z,98474.40
2023-10-19T14:30:55.226Z,98470.40
2023-10-19T14:32:28.212Z,98466.20
2023-10-19T14:34:00.558Z,98466.60
2023-10-19T14:35:33.377Z,98468.40
2023-10-19T14:37:05.204Z,98464.20
2023-10-19T14:38:37.631Z,98464.40
2023-10-19T14:40:12.435Z,98463.80
2023-10-19T14:41:44.132Z,98461.60
2023-10-19T14:43:15.923Z,98460.20
2023-10-19T14:44:47.721Z,98457.60
2023-10-19T14:46:19.447Z,98454.80
2023-10-19T14:47:55.784Z,98454.80
2023-10-19T14:49:27.631Z,98446.00
2023-10-19T14:50:59.384Z,98449.20
2023-10-19T14:52:31.769Z,98447.60
2023-10-19T14:54:03.836Z,98441.60
2023-10-19T14:55:35.914Z,98439.20
2023-10-19T14:57:09.075Z,98437.20
2023-10-19T14:58:40.823Z,98438.00
2023-10-19T15:00:22.922Z,98435.60
2023-10-19T15:01:56.335Z,98428.80
2023-10-19T15:03:30.037Z,98425.00
2023-10-19T15:05:02.459Z,98426.80
2023-10-19T15:06:37.225Z,98421.20
2023-10-19T15:08:10.978Z,98417.00
2023-10-19T15:09:42.842Z,98417.60
2023-10-19T15:11:20.476Z,98413.40
2023-10-19T15:12:56.635Z,98403.60
2023-10-19T15:14:28.402Z,98397.20
2023-10-19T15:16:09.886Z,98397.60
2023-10-19T15:17:46.089Z,98396.40
2023-10-19T15:19:19.912Z,98397.80
2023-10-19T15:20:51.851Z,98395.60
2023-10-19T15:22:24.384Z,98392.80
2023-10-19T15:23:56.334Z,98394.40
2023-10-19T15:25:28.864Z,98389.60
2023-10-19T15:27:00.660Z,98385.40
2023-10-19T15:28:34.295Z,98387.40
2023-10-19T15:30:09.974Z,98384.80
2023-10-19T15:31:41.862Z,98382.80
2023-10-19T15:33:15.784Z,98382.80
2023-10-19T15:34:48.829Z,98382.20
2023-10-19T15:36:20.566Z,98387.40
2023-10-19T15:37:57.751Z,98390.40
2023-10-19T15:39:31.171Z,98384.20
2023-10-19T15:41:02.937Z,98382.00
2023-10-19T15:42:37.124Z,98378.40
2023-10-19T15:44:08.913Z,98379.80
2023-10-19T15:45:41.091Z,98378.40
2023-10-19T15:47:13.832Z,98376.80
2023-10-19T15:48:45.685Z,98375.20
2023-10-19T15:50:18.642Z,98375.60
2023-10-19T15:51:52.570Z,98370.60
2023-10-19T15:53:24.351Z,98364.20
2023-10-19T15:54:56.779Z,98362.80
2023-10-19T15:56:30.130Z,98364.40
2023-10-19T15:58:01.879Z,98360.20
2023-10-19T15:59:33.750Z,98359.40
2023-10-19T16:01:07.413Z,98355.40
2023-10-19T16:02:39.505Z,98359.00
2023-10-19T16:04:11.393Z,98353.40
2023-10-19T16:05:43.160Z,98349.00
2023-10-19T16:07:19.088Z,98342.40
2023-10-19T16:08:53.140Z,98336.00
2023-10-19T16:10:25.237Z,98335.00
2023-10-19T16:11:57.283Z,98331.00
2023-10-19T16:13:29.034Z,98328.00
2023-10-19T16:15:01.471Z,98325.00
2023-10-19T16:16:33.306Z,98324.60
2023-10-19T16:18:07.108Z,98318.40
2023-10-19T16:19:39.212Z,98329.80
2023-10-19T16:21:11.179Z,98331.80
2023-10-19T16:22:43.202Z,98330.80
2023-10-19T16:24:18.271Z,98333.80
2023-10-19T16:25:50.007Z,98331.20
2023-10-19T16:27:21.953Z,98332.00
2023-10-19T16:28:55.154Z,98333.00
2023-10-19T16:30:32.539Z,98331.80
2023-10-19T16:32:05.116Z,98329.20
2023-10-19T16:33:37.053Z,98328.00
2023-10-19T16:35:10.134Z,98327.80
2023-10-19T16:36:43.597Z,98326.20
2023-10-19T16:38:16.288Z,98326.20
2023-10-19T16:39:48.059Z,98329.40
2023-10-19T16:41:20.530Z,98331.80
2023-10-19T16:42:52.279Z,98333.00
2023-10-19T16:44:24.196Z,98330.00
2023-10-19T16:45:59.645Z,98328.40
2023-10-19T16:47:31.479Z,98328.80
2023-10-19T16:49:04.348Z,98328.20
2023-10-19T16:50:36.391Z,98323.60
2023-10-19T16:52:08.500Z,98320.60
2023-10-19T16:53:40.409Z,98319.20
2023-10-19T16:55:12.353Z,98326.00
2023-10-19T16:56:49.911Z,98328.80
2023-10-19T16:58:21.644Z,98326.60
2023-10-19T16:59:55.699Z,98332.40
2023-10-19T17:01:28.278Z,98335.00
2023-10-19T17:03:00.745Z,98329.40
2023-10-19T17:04:33.033Z,98325.20
2023-10-19T17:06:05.212Z,98319.20
2023-10-19T17:07:36.961Z,98327.20
2023-10-19T17:09:19.972Z,98329.20
2023-10-19T17:10:54.052Z,98334.40
2023-10-19T17:12:26.701Z,98331.00
2023-10-19T17:13:58.482Z,98328.20
2023-10-19T17:15:30.956Z,98329.60
2023-10-19T17:17:04.277Z,98330.60
2023-10-19T17:18:36.442Z,98330.60
2023-10-19T17:20:10.130Z,98331.60
2023-10-19T17:21:42.070Z,98336.60
2023-10-19T17:23:14.127Z,98332.40
2023-10-19T17:24:46.500Z,98334.40
2023-10-19T17:26:18.343Z,98329.60
2023-10-19T17:27:50.152Z,98333.00
2023-10-19T17:29:22.390Z,98330.80
2023-10-19T17:30:55.717Z,98333.80
2023-10-19T17:32:28.855Z,98330.00
2023-10-19T17:34:00.981Z,98327.60
2023-10-19T17:35:32.885Z,98322.60
2023-10-19T17:37:04.950Z,98318.80
2023-10-19T17:38:36.996Z,98327.80
2023-10-19T17:40:09.180Z,98322.40
2023-10-19T17:41:42.848Z,98321.60
2023-10-19T17:43:15.317Z,98319.60
2023-10-19T17:44:47.312Z,98320.40
2023-10-19T17:46:19.187Z,98323.80
2023-10-19T17:47:52.330Z,98327.00
2023-10-19T17:49:24.184Z,98333.60
2023-10-19T17:50:56.107Z,98329.40
2023-10-19T17:52:28.604Z,98326.80
2023-10-19T17:54:00.339Z,98318.20
2023-10-19T17:55:33.332Z,98314.20
2023-10-19T17:57:05.132Z,98308.60
2023-10-19T17:58:37.677Z,98301.00
2023-10-19T18:00:12.721Z,98299.80
2023-10-19T18:01:46.670Z,98299.00
2023-10-19T18:03:20.806Z,98300.40
2023-10-19T18:04:54.376Z,98302.40
2023-10-19T18:06:26.798Z,98295.40
2023-10-19T18:07:58.534Z,98290.20
2023-10-19T18:09:30.553Z,98293.60
2023-10-19T18:11:03.397Z,98296.80
2023-10-19T18:12:36.513Z,98298.20
2023-10-19T18:14:09.327Z,98296.60
2023-10-19T18:15:41.268Z,98292.60
2023-10-19T18:17:13.078Z,98294.00
2023-10-19T18:18:49.103Z,98292.20
2023-10-19T18:20:20.836Z,98290.20
2023-10-19T18:21:55.601Z,98288.80
2023-10-19T18:23:27.423Z,98283.40
2023-10-19T18:25:02.180Z,98274.80
2023-10-19T18:26:33.996Z,98277.20
2023-10-19T18:28:06.301Z,98276.00
2023-10-19T18:29:38.097Z,98284.80
2023-10-19T18:31:10.007Z,98288.40
2023-10-19T18:32:42.022Z,98299.00